createdAt,value
2017-09-09T00:00:47.668Z,995.88
2017-09-09T00:01:59.946Z,995.85
2017-09-09T00:03:11.879Z,995.82
2017-09-09T00:04:24.506Z,995.83
2017-09-09T00:05:36.762Z,995.79
2017-09-09T00:06:48.736Z,995.79
2017-09-09T00:08:00.744Z,995.78
2017-09-09T00:09:12.390Z,995.73
2017-09-09T00:10:24.595Z,995.75
2017-09-09T00:11:36.967Z,995.79
2017-09-09T00:12:49.612Z,995.83
2017-09-09T00:14:02.229Z,995.74
2017-09-09T00:15:13.879Z,995.69
2017-09-09T00:16:26.513Z,995.64
2017-09-09T00:17:38.134Z,995.67
2017-09-09T00:18:50.745Z,995.64
2017-09-09T00:20:03.200Z,995.67
2017-09-09T00:21:15.857Z,995.63
2017-09-09T00:22:28.482Z,995.62
2017-09-09T00:23:41.069Z,995.6
2017-09-09T00:24:53.686Z,995.59
2017-09-09T00:26:05.632Z,995.56
2017-09-09T00:27:18.235Z,995.56
2017-09-09T00:28:30.548Z,995.57
2017-09-09T00:29:42.491Z,995.57
2017-09-09T00:30:55.079Z,995.51
2017-09-09T00:32:07.358Z,995.51
2017-09-09T00:33:19.626Z,995.44
2017-09-09T00:34:32.264Z,995.4
2017-09-09T00:35:44.835Z,995.36
2017-09-09T00:36:57.096Z,995.38
2017-09-09T00:38:09.710Z,995.34
2017-09-09T00:39:22.273Z,995.34
2017-09-09T00:40:34.887Z,995.37
2017-09-09T00:41:47.497Z,995.36
2017-09-09T00:42:59.441Z,995.39
2017-09-09T00:44:12.097Z,995.3
2017-09-09T00:45:24.720Z,995.36
2017-09-09T00:46:37.328Z,995.33
2017-09-09T00:47:49.611Z,995.34
2017-09-09T00:49:02.213Z,995.33
2017-09-09T00:50:14.794Z,995.25
2017-09-09T00:51:27.389Z,995.28
2017-09-09T00:52:39.943Z,995.29
2017-09-09T00:53:52.214Z,995.3
2017-09-09T00:55:04.522Z,995.3
2017-09-09T00:56:17.045Z,995.28
2017-09-09T00:57:29.265Z,995.3
2017-09-09T00:58:41.816Z,995.25
2017-09-09T00:59:54.065Z,995.26
2017-09-09T01:01:05.730Z,995.29
2017-09-09T01:02:18.008Z,995.3
2017-09-09T01:03:30.950Z,995.27
2017-09-09T01:04:43.589Z,995.28
2017-09-09T01:05:56.127Z,995.3
2017-09-09T01:07:08.667Z,995.3
2017-09-09T01:08:20.986Z,995.24
2017-09-09T01:09:32.921Z,995.26
2017-09-09T01:10:45.492Z,995.26
2017-09-09T01:11:57.773Z,995.22
2017-09-09T01:13:09.425Z,995.23
2017-09-09T01:14:21.930Z,995.2
2017-09-09T01:15:33.858Z,995.2
2017-09-09T01:16:46.199Z,995.12
2017-09-09T01:17:58.816Z,995.14
2017-09-09T01:19:11.064Z,995.09
2017-09-09T01:20:23.638Z,995.06
2017-09-09T01:21:35.609Z,995.08
2017-09-09T01:22:47.892Z,995.02
2017-09-09T01:24:00.274Z,995.04
2017-09-09T01:25:12.647Z,995.02
2017-09-09T01:26:24.919Z,995.03
2017-09-09T01:27:37.511Z,995.07
2017-09-09T01:28:49.807Z,995.09
2017-09-09T01:30:02.428Z,995.04
2017-09-09T01:31:15.046Z,995.1
2017-09-09T01:32:27.313Z,995.1
2017-09-09T01:33:39.210Z,995.05
2017-09-09T01:34:51.840Z,994.97
2017-09-09T01:36:04.675Z,994.96
2017-09-09T01:37:17.298Z,994.91
2017-09-09T01:38:29.841Z,994.94
2017-09-09T01:39:42.093Z,994.95
2017-09-09T01:40:54.333Z,994.94
2017-09-09T01:42:06.981Z,994.95
2017-09-09T01:43:19.254Z,994.95
2017-09-09T01:44:31.850Z,994.95
2017-09-09T01:45:43.494Z,994.87
2017-09-09T01:46:56.085Z,994.94
2017-09-09T01:48:08.656Z,994.87
2017-09-09T01:49:20.631Z,994.9
2017-09-09T01:50:32.877Z,994.9
2017-09-09T01:51:45.445Z,994.85
2017-09-09T01:52:57.716Z,994.84
2017-09-09T01:54:10.313Z,994.85
2017-09-09T01:55:22.586Z,994.82
2017-09-09T01:56:34.826Z,994.79
2017-09-09T01:57:47.365Z,994.76
2017-09-09T01:58:59.660Z,994.76
2017-09-09T02:00:12.244Z,994.74
2017-09-09T02:01:24.834Z,994.77
2017-09-09T02:02:37.404Z,994.75
2017-09-09T02:03:49.691Z,994.73
2017-09-09T02:05:01.994Z,994.7
2017-09-09T02:06:14.620Z,994.72
2017-09-09T02:07:27.192Z,994.73
2017-09-09T02:08:39.715Z,994.71
2017-09-09T02:09:52.021Z,994.71
2017-09-09T02:11:04.556Z,994.68
2017-09-09T02:12:17.083Z,994.68
2017-09-09T02:13:29.353Z,994.61
2017-09-09T02:14:41.941Z,994.56
2017-09-09T02:15:53.899Z,994.52
2017-09-09T02:17:05.833Z,994.53
2017-09-09T02:18:18.406Z,994.52
2017-09-09T02:19:31.005Z,994.57
2017-09-09T02:20:43.368Z,994.51
2017-09-09T02:21:55.313Z,994.57
2017-09-09T02:23:07.880Z,994.53
2017-09-09T02:24:20.487Z,994.5
2017-09-09T02:25:32.722Z,994.49
2017-09-09T02:26:45.049Z,994.45
2017-09-09T02:27:57.665Z,994.4
2017-09-09T02:29:09.964Z,994.4
2017-09-09T02:30:22.604Z,994.36
2017-09-09T02:31:35.131Z,994.32
2017-09-09T02:32:47.404Z,994.32
2017-09-09T02:33:59.342Z,994.32
2017-09-09T02:35:11.890Z,994.28
2017-09-09T02:36:23.910Z,994.26
2017-09-09T02:37:36.178Z,994.31
2017-09-09T02:38:48.477Z,994.26
2017-09-09T02:40:00.419Z,994.25
2017-09-09T02:41:12.914Z,994.16
2017-09-09T02:42:25.522Z,994.15
2017-09-09T02:43:37.800Z,994.17
2017-09-09T02:44:50.394Z,994.17
2017-09-09T02:46:02.355Z,994.12
2017-09-09T02:47:13.968Z,994.11
2017-09-09T02:48:26.579Z,994.14
2017-09-09T02:49:38.883Z,994.16
2017-09-09T02:50:51.498Z,994.15
2017-09-09T02:52:03.421Z,994.18
2017-09-09T02:53:15.996Z,994.11
2017-09-09T02:54:28.273Z,994.17
2017-09-09T02:55:40.845Z,994.16
2017-09-09T02:56:53.108Z,994.11
2017-09-09T02:58:05.715Z,994.11
2017-09-09T02:59:18.301Z,994.09
2017-09-09T03:00:30.570Z,994.03
2017-09-09T03:01:43.165Z,993.99
2017-09-09T03:02:55.662Z,994.01
2017-09-09T03:04:07.907Z,993.99
2017-09-09T03:05:20.495Z,993.96
2017-09-09T03:06:32.715Z,993.97
2017-09-09T03:07:45.351Z,993.96
2017-09-09T03:08:57.932Z,993.99
2017-09-09T03:10:09.903Z,993.94
2017-09-09T03:11:22.192Z,993.92
2017-09-09T03:12:34.511Z,993.94
2017-09-09T03:13:46.779Z,993.94
2017-09-09T03:14:59.042Z,993.96
2017-09-09T03:16:11.289Z,993.94
2017-09-09T03:17:23.894Z,993.97
2017-09-09T03:18:36.500Z,993.97
2017-09-09T03:19:48.751Z,993.93
2017-09-09T03:21:00.946Z,993.92
2017-09-09T03:22:13.566Z,993.9
2017-09-09T03:23:25.838Z,993.88
2017-09-09T03:24:38.614Z,993.87
2017-09-09T03:25:50.911Z,993.88
2017-09-09T03:27:03.475Z,993.82
2017-09-09T03:28:15.077Z,993.8
2017-09-09T03:29:27.341Z,993.79
2017-09-09T03:30:39.937Z,993.78
2017-09-09T03:31:52.513Z,993.77
2017-09-09T03:33:04.431Z,993.77
2017-09-09T03:34:16.398Z,993.75
2017-09-09T03:35:28.655Z,993.76
2017-09-09T03:36:40.977Z,993.75
2017-09-09T03:37:53.202Z,993.73
2017-09-09T03:39:05.779Z,993.74
2017-09-09T03:40:18.056Z,993.7
2017-09-09T03:41:30.322Z,993.71
2017-09-09T03:42:42.944Z,993.67
2017-09-09T03:43:55.499Z,993.67
2017-09-09T03:45:07.803Z,993.62
2017-09-09T03:46:20.372Z,993.63
2017-09-09T03:47:32.943Z,993.64
2017-09-09T03:48:45.514Z,993.63
2017-09-09T03:49:57.768Z,993.64
2017-09-09T03:51:10.090Z,993.61
2017-09-09T03:52:22.001Z,993.55
2017-09-09T03:53:34.254Z,993.53
2017-09-09T03:54:46.249Z,993.54
2017-09-09T03:55:58.530Z,993.6
2017-09-09T03:57:10.457Z,993.54
2017-09-09T03:58:22.787Z,993.57
2017-09-09T03:59:35.033Z,993.59
2017-09-09T04:00:47.635Z,993.54
2017-09-09T04:02:00.280Z,993.55
2017-09-09T04:03:12.549Z,993.55
2017-09-09T04:04:24.793Z,993.56
2017-09-09T04:05:36.997Z,993.55
2017-09-09T04:06:49.636Z,993.49
2017-09-09T04:08:02.231Z,993.49
2017-09-09T04:09:14.162Z,993.5
2017-09-09T04:10:26.474Z,993.48
2017-09-09T04:11:38.794Z,993.52
2017-09-09T04:12:50.715Z,993.45
2017-09-09T04:14:02.981Z,993.51
2017-09-09T04:15:15.539Z,993.52
2017-09-09T04:16:28.170Z,993.54
2017-09-09T04:17:40.428Z,993.49
2017-09-09T04:18:53.313Z,993.52
2017-09-09T04:20:05.275Z,993.51
2017-09-09T04:21:17.846Z,993.48
2017-09-09T04:22:29.575Z,993.45
2017-09-09T04:23:41.819Z,993.45
2017-09-09T04:24:53.539Z,993.47
2017-09-09T04:26:05.460Z,993.48
2017-09-09T04:27:17.731Z,993.47
2017-09-09T04:28:30.353Z,993.51
2017-09-09T04:29:42.916Z,993.46
2017-09-09T04:30:55.548Z,993.48
2017-09-09T04:32:08.123Z,993.46
2017-09-09T04:33:20.406Z,993.49
2017-09-09T04:34:33.047Z,993.46
2017-09-09T04:35:45.276Z,993.44
2017-09-09T04:36:57.915Z,993.51
2017-09-09T04:38:09.922Z,993.54
2017-09-09T04:39:22.247Z,993.52
2017-09-09T04:40:35.110Z,993.49
2017-09-09T04:41:47.387Z,993.45
2017-09-09T04:42:59.651Z,993.42
2017-09-09T04:44:11.972Z,993.47
2017-09-09T04:45:24.617Z,993.45
2017-09-09T04:46:37.164Z,993.42
2017-09-09T04:47:49.101Z,993.36
2017-09-09T04:49:01.056Z,993.41
2017-09-09T04:50:13.675Z,993.38
2017-09-09T04:51:25.999Z,993.45
2017-09-09T04:52:38.617Z,993.41
2017-09-09T04:53:51.210Z,993.44
2017-09-09T04:55:03.818Z,993.4
2017-09-09T04:56:16.482Z,993.38
2017-09-09T04:57:29.100Z,993.43
2017-09-09T04:58:41.351Z,993.43
2017-09-09T04:59:53.370Z,993.44
2017-09-09T05:01:05.367Z,993.39
2017-09-09T05:02:17.632Z,993.39
2017-09-09T05:03:30.224Z,993.37
2017-09-09T05:04:42.773Z,993.38
2017-09-09T05:05:55.409Z,993.4
2017-09-09T05:07:07.075Z,993.39
2017-09-09T05:08:19.326Z,993.4
2017-09-09T05:09:31.905Z,993.38
2017-09-09T05:10:44.481Z,993.39
2017-09-09T05:11:57.023Z,993.38
2017-09-09T05:13:09.267Z,993.38
2017-09-09T05:14:21.230Z,993.38
2017-09-09T05:15:33.507Z,993.38
2017-09-09T05:16:46.110Z,993.33
2017-09-09T05:17:58.660Z,993.35
2017-09-09T05:19:11.281Z,993.32
2017-09-09T05:20:23.827Z,993.34
2017-09-09T05:21:36.122Z,993.35
2017-09-09T05:22:48.756Z,993.38
2017-09-09T05:24:00.420Z,993.39
2017-09-09T05:25:12.997Z,993.42
2017-09-09T05:26:25.250Z,993.41
2017-09-09T05:27:37.220Z,993.42
2017-09-09T05:28:49.471Z,993.39
2017-09-09T05:30:01.430Z,993.42
2017-09-09T05:31:13.701Z,993.49
2017-09-09T05:32:26.245Z,993.44
2017-09-09T05:33:38.196Z,993.49
2017-09-09T05:34:50.488Z,993.44
2017-09-09T05:36:03.062Z,993.49
2017-09-09T05:37:15.365Z,993.45
2017-09-09T05:38:27.599Z,993.49
2017-09-09T05:39:39.874Z,993.45
2017-09-09T05:40:52.494Z,993.45
2017-09-09T05:42:05.129Z,993.42
2017-09-09T05:43:17.699Z,993.43
2017-09-09T05:44:29.979Z,993.44
2017-09-09T05:45:42.254Z,993.36
2017-09-09T05:46:54.601Z,993.38
2017-09-09T05:48:06.873Z,993.38
2017-09-09T05:49:19.460Z,993.42
2017-09-09T05:50:31.757Z,993.43
2017-09-09T05:51:44.342Z,993.41
2017-09-09T05:52:56.652Z,993.38
2017-09-09T05:54:09.310Z,993.39
2017-09-09T05:55:21.250Z,993.38
2017-09-09T05:56:33.611Z,993.38
2017-09-09T05:57:46.236Z,993.31
2017-09-09T05:58:58.793Z,993.31
2017-09-09T06:00:11.096Z,993.32
2017-09-09T06:01:23.709Z,993.33
2017-09-09T06:02:36.300Z,993.35
2017-09-09T06:03:48.572Z,993.41
2017-09-09T06:05:00.874Z,993.41
2017-09-09T06:06:13.137Z,993.39
2017-09-09T06:07:25.321Z,993.37
2017-09-09T06:08:37.591Z,993.38
2017-09-09T06:09:50.190Z,993.31
2017-09-09T06:11:02.513Z,993.3
2017-09-09T06:12:14.403Z,993.32
2017-09-09T06:13:26.672Z,993.31
2017-09-09T06:14:38.997Z,993.31
2017-09-09T06:15:51.582Z,993.31
2017-09-09T06:17:03.511Z,993.31
2017-09-09T06:18:16.031Z,993.37
2017-09-09T06:19:28.605Z,993.38
2017-09-09T06:20:41.221Z,993.42
2017-09-09T06:21:53.769Z,993.47
2017-09-09T06:23:05.370Z,993.44
2017-09-09T06:24:17.886Z,993.38
2017-09-09T06:25:30.406Z,993.41
2017-09-09T06:26:43.007Z,993.41
2017-09-09T06:27:55.596Z,993.38
2017-09-09T06:29:08.222Z,993.38
2017-09-09T06:30:20.481Z,993.41
2017-09-09T06:31:32.761Z,993.43
2017-09-09T06:32:44.696Z,993.34
2017-09-09T06:33:56.992Z,993.35
2017-09-09T06:35:09.611Z,993.33
2017-09-09T06:36:22.220Z,993.29
2017-09-09T06:37:34.862Z,993.28
2017-09-09T06:38:47.123Z,993.29
2017-09-09T06:39:59.728Z,993.23
2017-09-09T06:41:11.994Z,993.24
2017-09-09T06:42:23.945Z,993.17
2017-09-09T06:43:36.508Z,993.19
2017-09-09T06:44:48.791Z,993.23
2017-09-09T06:46:01.084Z,993.26
2017-09-09T06:47:13.131Z,993.24
2017-09-09T06:48:25.722Z,993.26
2017-09-09T06:49:38.350Z,993.23
2017-09-09T06:50:50.641Z,993.21
2017-09-09T06:52:02.967Z,993.17
2017-09-09T06:53:15.298Z,993.21
2017-09-09T06:54:27.533Z,993.24
2017-09-09T06:55:40.147Z,993.28
2017-09-09T06:56:52.698Z,993.28
2017-09-09T06:58:04.668Z,993.27
2017-09-09T06:59:17.219Z,993.21
2017-09-09T07:00:29.782Z,993.16
2017-09-09T07:01:42.346Z,993.14
2017-09-09T07:02:54.332Z,993.17
2017-09-09T07:04:06.345Z,993.13
2017-09-09T07:05:18.948Z,993.11
2017-09-09T07:06:31.550Z,993.17
2017-09-09T07:07:44.164Z,993.17
2017-09-09T07:08:56.774Z,993.19
2017-09-09T07:10:09.061Z,993.14
2017-09-09T07:11:21.352Z,993.1
2017-09-09T07:12:33.916Z,993.1
2017-09-09T07:13:46.485Z,993.08
2017-09-09T07:14:58.763Z,993.12
2017-09-09T07:16:11.125Z,993.14
2017-09-09T07:17:23.372Z,993.15
2017-09-09T07:18:35.332Z,993.15
2017-09-09T07:19:47.613Z,993.16
2017-09-09T07:21:00.211Z,993.22
2017-09-09T07:22:12.515Z,993.24
2017-09-09T07:23:24.803Z,993.24
2017-09-09T07:24:37.449Z,993.28
2017-09-09T07:25:50.037Z,993.27
2017-09-09T07:27:02.284Z,993.26
2017-09-09T07:28:14.871Z,993.28
2017-09-09T07:29:27.160Z,993.25
2017-09-09T07:30:39.707Z,993.24
2017-09-09T07:31:51.675Z,993.26
2017-09-09T07:33:03.948Z,993.29
2017-09-09T07:34:16.224Z,993.35
2017-09-09T07:35:28.534Z,993.4
2017-09-09T07:36:41.217Z,993.39
2017-09-09T07:37:53.808Z,993.3
2017-09-09T07:39:06.093Z,993.27
2017-09-09T07:40:18.429Z,993.28
2017-09-09T07:41:30.373Z,993.32
2017-09-09T07:42:42.640Z,993.34
2017-09-09T07:43:54.873Z,993.31
2017-09-09T07:45:07.409Z,993.3
2017-09-09T07:46:19.681Z,993.24
2017-09-09T07:47:31.916Z,993.29
2017-09-09T07:48:44.505Z,993.29
2017-09-09T07:49:56.154Z,993.32
2017-09-09T07:51:08.407Z,993.28
2017-09-09T07:52:20.402Z,993.36
2017-09-09T07:53:33.054Z,993.35
2017-09-09T07:54:45.297Z,993.38
2017-09-09T07:55:56.583Z,993.36
2017-09-09T07:57:09.162Z,993.34
2017-09-09T07:58:21.476Z,993.29
2017-09-09T07:59:33.741Z,993.24
2017-09-09T08:00:46.030Z,993.18
2017-09-09T08:01:58.624Z,993.21
2017-09-09T08:03:10.877Z,993.17
2017-09-09T08:04:23.099Z,993.2
2017-09-09T08:05:35.726Z,993.21
2017-09-09T08:06:48.201Z,993.2
2017-09-09T08:08:00.545Z,993.19
2017-09-09T08:09:13.166Z,993.18
2017-09-09T08:10:25.450Z,993.2
2017-09-09T08:11:37.764Z,993.26
2017-09-09T08:12:50.044Z,993.27
2017-09-09T08:14:02.680Z,993.29
2017-09-09T08:15:14.911Z,993.3
2017-09-09T08:16:26.910Z,993.26
2017-09-09T08:17:39.215Z,993.29
2017-09-09T08:18:51.568Z,993.31
2017-09-09T08:20:03.865Z,993.27
2017-09-09T08:21:16.497Z,993.31
2017-09-09T08:22:29.149Z,993.31
2017-09-09T08:23:41.078Z,993.3
2017-09-09T08:24:53.680Z,993.35
2017-09-09T08:26:05.965Z,993.3
2017-09-09T08:27:18.533Z,993.3
2017-09-09T08:28:31.091Z,993.31
2017-09-09T08:29:43.392Z,993.29
2017-09-09T08:30:55.651Z,993.29
2017-09-09T08:32:08.279Z,993.25
2017-09-09T08:33:20.217Z,993.26
2017-09-09T08:34:32.817Z,993.24
2017-09-09T08:35:45.388Z,993.13
2017-09-09T08:36:58.006Z,993.09
2017-09-09T08:38:09.925Z,993.14
2017-09-09T08:39:22.221Z,993.15
2017-09-09T08:40:34.528Z,993.17
2017-09-09T08:41:46.812Z,993.14
2017-09-09T08:42:59.097Z,993.13
2017-09-09T08:44:10.746Z,993.14
2017-09-09T08:45:22.399Z,993.14
2017-09-09T08:46:34.674Z,993.18
2017-09-09T08:47:47.316Z,993.19
2017-09-09T08:48:59.614Z,993.19
2017-09-09T08:50:12.207Z,993.22
2017-09-09T08:51:24.177Z,993.18
2017-09-09T08:52:36.761Z,993.22
2017-09-09T08:53:49.368Z,993.22
2017-09-09T08:55:01.343Z,993.21
2017-09-09T08:56:13.669Z,993.21
2017-09-09T08:57:26.206Z,993.26
2017-09-09T08:58:38.180Z,993.25
2017-09-09T08:59:50.390Z,993.27
2017-09-09T09:01:02.959Z,993.24
2017-09-09T09:02:15.520Z,993.24
2017-09-09T09:03:28.134Z,993.23
2017-09-09T09:04:40.415Z,993.21
2017-09-09T09:05:52.374Z,993.24
2017-09-09T09:07:03.707Z,993.1
2017-09-09T09:08:16.278Z,993
2017-09-09T09:09:28.544Z,992.93
2017-09-09T09:10:40.857Z,992.89
2017-09-09T09:11:53.677Z,992.88
2017-09-09T09:13:05.581Z,992.91
2017-09-09T09:14:17.548Z,993.02
2017-09-09T09:15:30.115Z,993.05
2017-09-09T09:16:42.387Z,993.09
2017-09-09T09:17:54.586Z,993.1
2017-09-09T09:19:06.856Z,993.1
2017-09-09T09:20:19.146Z,993.03
2017-09-09T09:21:31.399Z,992.99
2017-09-09T09:22:43.698Z,992.97
2017-09-09T09:23:56.290Z,993.06
2017-09-09T09:25:08.261Z,993.1
2017-09-09T09:26:20.268Z,993.19
2017-09-09T09:27:32.280Z,993.24
2017-09-09T09:28:44.885Z,993.25
2017-09-09T09:29:57.164Z,993.29
2017-09-09T09:31:09.512Z,993.26
2017-09-09T09:32:21.796Z,993.24
2017-09-09T09:33:33.724Z,993.14
2017-09-09T09:34:45.689Z,993.11
2017-09-09T09:35:58.239Z,992.98
2017-09-09T09:37:10.288Z,992.93
2017-09-09T09:38:22.539Z,992.97
2017-09-09T09:39:34.523Z,993
2017-09-09T09:40:47.081Z,993.01
2017-09-09T09:41:59.404Z,993.03
2017-09-09T09:43:11.390Z,993.05
2017-09-09T09:44:23.922Z,993.02
2017-09-09T09:45:36.556Z,993.01
2017-09-09T09:46:49.141Z,992.98
2017-09-09T09:48:01.749Z,992.88
2017-09-09T09:49:13.104Z,992.81
2017-09-09T09:50:25.672Z,992.87
2017-09-09T09:51:38.013Z,992.83
2017-09-09T09:52:49.982Z,992.87
2017-09-09T09:54:02.358Z,992.83
2017-09-09T09:55:14.934Z,992.83
2017-09-09T09:56:27.167Z,992.89
2017-09-09T09:57:39.452Z,992.97
2017-09-09T09:58:51.720Z,993.02
2017-09-09T10:00:04.016Z,993.06
2017-09-09T10:01:16.575Z,993.11
2017-09-09T10:02:29.178Z,993.19
2017-09-09T10:03:41.783Z,993.22
2017-09-09T10:04:54.363Z,993.23
2017-09-09T10:06:06.671Z,993.22
2017-09-09T10:07:19.289Z,993.16
2017-09-09T10:08:31.556Z,993.03
2017-09-09T10:09:43.546Z,993.02
2017-09-09T10:10:55.533Z,993.13
2017-09-09T10:12:08.135Z,993.13
2017-09-09T10:13:20.074Z,992.99
2017-09-09T10:14:32.328Z,992.94
2017-09-09T10:15:43.965Z,992.98
2017-09-09T10:16:56.600Z,993.02
2017-09-09T10:18:08.898Z,993.08
2017-09-09T10:19:21.161Z,992.9
2017-09-09T10:20:33.484Z,992.73
2017-09-09T10:21:45.740Z,992.59
2017-09-09T10:22:58.128Z,992.64
2017-09-09T10:24:10.070Z,992.77
2017-09-09T10:25:22.342Z,992.88
2017-09-09T10:26:34.272Z,992.99
2017-09-09T10:27:46.905Z,993.11
2017-09-09T10:28:59.237Z,993.17
2017-09-09T10:30:11.850Z,993.17
2017-09-09T10:31:23.843Z,993.15
2017-09-09T10:32:35.749Z,993.15
2017-09-09T10:33:48.333Z,993.02
2017-09-09T10:35:00.960Z,993.01
2017-09-09T10:36:13.199Z,993.07
2017-09-09T10:37:25.456Z,993.17
2017-09-09T10:38:38.104Z,993.16
2017-09-09T10:39:50.429Z,993.23
2017-09-09T10:41:02.669Z,993.23
2017-09-09T10:42:15.202Z,993.21
2017-09-09T10:43:27.531Z,993.27
2017-09-09T10:44:39.820Z,993.3
2017-09-09T10:45:51.790Z,993.21
2017-09-09T10:47:04.086Z,993.22
2017-09-09T10:48:16.634Z,993.24
2017-09-09T10:49:28.891Z,993.29
2017-09-09T10:50:41.191Z,993.28
2017-09-09T10:51:53.460Z,993.18
2017-09-09T10:53:05.431Z,993.09
2017-09-09T10:54:17.759Z,993.13
2017-09-09T10:55:30.348Z,993.22
2017-09-09T10:56:42.286Z,993.38
2017-09-09T10:57:54.846Z,993.37
2017-09-09T10:59:06.548Z,993.3
2017-09-09T11:00:19.467Z,993.32
2017-09-09T11:01:31.810Z,993.33
2017-09-09T11:02:44.136Z,993.41
2017-09-09T11:03:56.503Z,993.41
2017-09-09T11:05:08.552Z,993.47
2017-09-09T11:06:21.100Z,993.6
2017-09-09T11:07:33.333Z,993.58
2017-09-09T11:08:45.631Z,993.59
2017-09-09T11:09:57.614Z,993.58
2017-09-09T11:11:10.308Z,993.67
2017-09-09T11:12:22.875Z,993.57
2017-09-09T11:13:35.139Z,993.51
2017-09-09T11:14:47.723Z,993.47
2017-09-09T11:15:59.707Z,993.42
2017-09-09T11:17:12.005Z,993.36
2017-09-09T11:18:24.298Z,993.42
2017-09-09T11:19:36.892Z,993.4
2017-09-09T11:20:49.525Z,993.34
2017-09-09T11:22:02.157Z,993.34
2017-09-09T11:23:14.747Z,993.25
2017-09-09T11:24:27.026Z,993.3
2017-09-09T11:25:39.325Z,993.42
2017-09-09T11:26:51.929Z,993.25
2017-09-09T11:28:03.948Z,993.22
2017-09-09T11:29:16.534Z,993.21
2017-09-09T11:30:28.766Z,992.99
2017-09-09T11:31:41.350Z,993.3
2017-09-09T11:32:53.957Z,993.41
2017-09-09T11:34:06.190Z,993.47
2017-09-09T11:35:17.838Z,993.53
2017-09-09T11:36:29.774Z,993.49
2017-09-09T11:37:41.359Z,993.51
2017-09-09T11:38:53.988Z,993.45
2017-09-09T11:40:06.593Z,993.39
2017-09-09T11:41:18.818Z,993.35
2017-09-09T11:42:31.369Z,993.3
2017-09-09T11:43:43.937Z,993.23
2017-09-09T11:44:55.889Z,993.17
2017-09-09T11:46:07.902Z,993.22
2017-09-09T11:47:20.504Z,993.17
2017-09-09T11:48:32.496Z,993.23
2017-09-09T11:49:44.751Z,993.36
2017-09-09T11:50:56.756Z,993.59
2017-09-09T11:52:09.361Z,993.68
2017-09-09T11:53:21.926Z,993.63
2017-09-09T11:54:34.217Z,993.45
2017-09-09T11:55:46.762Z,993.39
2017-09-09T11:56:58.694Z,993.34
2017-09-09T11:58:10.685Z,993.22
2017-09-09T11:59:22.960Z,993.3
2017-09-09T12:00:35.626Z,993.42
2017-09-09T12:01:48.233Z,993.42
2017-09-09T12:03:00.185Z,993.53
2017-09-09T12:04:12.810Z,993.52
2017-09-09T12:05:25.360Z,993.53
2017-09-09T12:06:37.005Z,993.55
2017-09-09T12:07:48.644Z,993.57
2017-09-09T12:09:00.589Z,993.48
2017-09-09T12:10:13.122Z,993.65
2017-09-09T12:11:25.104Z,993.61
2017-09-09T12:12:37.682Z,993.49
2017-09-09T12:13:50.283Z,993.51
2017-09-09T12:15:02.920Z,993.62
2017-09-09T12:16:15.514Z,993.58
2017-09-09T12:17:27.783Z,993.53
2017-09-09T12:18:40.386Z,993.51
2017-09-09T12:19:52.926Z,993.51
2017-09-09T12:21:04.870Z,993.49
2017-09-09T12:22:17.503Z,993.54
2017-09-09T12:23:29.774Z,993.58
2017-09-09T12:24:41.512Z,993.5
2017-09-09T12:25:54.091Z,993.42
2017-09-09T12:27:06.975Z,993.47
2017-09-09T12:28:19.544Z,993.42
2017-09-09T12:29:32.133Z,993.52
2017-09-09T12:30:44.417Z,993.51
2017-09-09T12:31:56.994Z,993.48
2017-09-09T12:33:09.603Z,993.47
2017-09-09T12:34:22.286Z,993.45
2017-09-09T12:35:34.618Z,993.55
2017-09-09T12:36:46.595Z,993.51
2017-09-09T12:37:58.834Z,993.47
2017-09-09T12:39:10.805Z,993.42
2017-09-09T12:40:22.780Z,993.45
2017-09-09T12:41:35.104Z,993.46
2017-09-09T12:42:47.674Z,993.56
2017-09-09T12:43:59.915Z,993.54
2017-09-09T12:45:12.512Z,993.39
2017-09-09T12:46:24.847Z,993.42
2017-09-09T12:47:37.401Z,993.41
2017-09-09T12:48:49.665Z,993.49
2017-09-09T12:50:02.233Z,993.53
2017-09-09T12:51:14.255Z,993.49
2017-09-09T12:52:26.490Z,993.42
2017-09-09T12:53:38.787Z,993.41
2017-09-09T12:54:51.066Z,993.37
2017-09-09T12:56:03.070Z,993.44
2017-09-09T12:57:15.665Z,993.46
2017-09-09T12:58:28.223Z,993.55
2017-09-09T12:59:40.787Z,993.53
2017-09-09T13:00:53.352Z,993.54
2017-09-09T13:02:05.949Z,993.6
2017-09-09T13:03:18.580Z,993.59
2017-09-09T13:04:30.539Z,993.65
2017-09-09T13:05:43.416Z,993.7
2017-09-09T13:06:55.705Z,993.62
2017-09-09T13:08:08.326Z,993.55
2017-09-09T13:09:20.621Z,993.51
2017-09-09T13:10:33.224Z,993.55
2017-09-09T13:11:45.813Z,993.54
2017-09-09T13:12:58.409Z,993.52
2017-09-09T13:14:10.978Z,993.53
2017-09-09T13:15:22.936Z,993.52
2017-09-09T13:16:34.855Z,993.45
2017-09-09T13:17:47.433Z,993.42
2017-09-09T13:19:00.018Z,993.47
2017-09-09T13:20:12.540Z,993.47
2017-09-09T13:21:24.829Z,993.49
2017-09-09T13:22:36.750Z,993.55
2017-09-09T13:23:49.327Z,993.66
2017-09-09T13:25:01.619Z,993.66
2017-09-09T13:26:14.242Z,993.66
2017-09-09T13:27:26.495Z,993.6
2017-09-09T13:28:39.109Z,993.69
2017-09-09T13:29:51.412Z,993.7
2017-09-09T13:31:03.706Z,993.74
2017-09-09T13:32:15.725Z,993.78
2017-09-09T13:33:27.724Z,993.71
2017-09-09T13:34:39.998Z,993.78
2017-09-09T13:35:52.538Z,993.82
2017-09-09T13:37:04.785Z,993.8
2017-09-09T13:38:17.075Z,993.83
2017-09-09T13:39:29.689Z,993.85
2017-09-09T13:40:41.972Z,993.71
2017-09-09T13:41:54.218Z,993.76
2017-09-09T13:43:06.467Z,993.74
2017-09-09T13:44:19.053Z,993.79
2017-09-09T13:45:31.717Z,993.76
2017-09-09T13:46:44.335Z,993.74
2017-09-09T13:47:56.858Z,993.72
2017-09-09T13:49:09.461Z,993.74
2017-09-09T13:50:21.780Z,993.76
2017-09-09T13:51:33.778Z,993.8
2017-09-09T13:52:46.419Z,993.81
2017-09-09T13:53:58.965Z,993.76
2017-09-09T13:55:11.274Z,993.8
2017-09-09T13:56:23.906Z,993.81
2017-09-09T13:57:36.180Z,993.85
2017-09-09T13:58:48.447Z,993.76
2017-09-09T14:00:00.738Z,993.77
2017-09-09T14:01:13.309Z,993.85
2017-09-09T14:02:24.998Z,993.93
2017-09-09T14:03:36.968Z,993.92
2017-09-09T14:04:49.553Z,993.91
2017-09-09T14:06:01.768Z,993.86
2017-09-09T14:07:14.046Z,993.92
2017-09-09T14:08:26.645Z,993.92
2017-09-09T14:09:38.972Z,993.96
2017-09-09T14:10:51.578Z,993.96
2017-09-09T14:12:03.563Z,993.96
2017-09-09T14:13:15.208Z,994.04
2017-09-09T14:14:27.521Z,993.99
2017-09-09T14:15:39.465Z,993.88
2017-09-09T14:16:52.066Z,993.94
2017-09-09T14:18:04.398Z,993.92
2017-09-09T14:19:16.079Z,993.93
2017-09-09T14:20:28.657Z,993.92
2017-09-09T14:21:40.658Z,993.93
2017-09-09T14:22:52.581Z,993.85
2017-09-09T14:24:05.176Z,993.89
2017-09-09T14:25:17.159Z,993.8
2017-09-09T14:26:29.780Z,993.74
2017-09-09T14:27:42.089Z,993.78
2017-09-09T14:28:54.633Z,993.76
2017-09-09T14:30:06.937Z,993.77
2017-09-09T14:31:19.535Z,993.84
2017-09-09T14:32:31.808Z,993.93
2017-09-09T14:33:44.385Z,993.99
2017-09-09T14:34:56.990Z,994.02
2017-09-09T14:36:09.258Z,994.02
2017-09-09T14:37:21.797Z,993.98
2017-09-09T14:38:34.349Z,993.98
2017-09-09T14:39:46.631Z,994
2017-09-09T14:40:58.969Z,994.01
2017-09-09T14:42:11.186Z,993.97
2017-09-09T14:43:23.463Z,994.01
2017-09-09T14:44:35.464Z,993.98
2017-09-09T14:45:48.091Z,993.96
2017-09-09T14:47:00.675Z,993.99
2017-09-09T14:48:13.233Z,993.96
2017-09-09T14:49:25.493Z,993.96
2017-09-09T14:50:38.141Z,993.96
2017-09-09T14:51:50.432Z,994.01
2017-09-09T14:53:02.712Z,994.09
2017-09-09T14:54:15.005Z,994.1
2017-09-09T14:55:27.657Z,994.06
2017-09-09T14:56:39.984Z,994.08
2017-09-09T14:57:52.606Z,994.06
2017-09-09T14:59:05.152Z,994.08
2017-09-09T15:00:17.503Z,993.99
2017-09-09T15:01:29.796Z,994.02
2017-09-09T15:02:42.012Z,994.04
2017-09-09T15:03:54.584Z,994.05
2017-09-09T15:05:07.187Z,993.98